Latest Weather Observations for Montague Island

IDN60801

Issued at 5:05 am EDT Thursday 29 January 2015 (issued every 30 minutes, with the page automatically refreshed every 10 minutes)

About weather observations | Map of weather stations | Latest weather observations for NSW | Other Formats
Station Details ID: 069017 Name: MONTAGUE ISLAND LIGHTHOUSE Lat: -36.25 Lon: 150.23 Height: 52.0 m
Data from the previous 72 hours. | See also: Recent months at Montague Island
Date/Time
EDT
Temp
°C
App
Temp
°C
Dew
Point
Rel
Hum
%
Delta-T
°C
Wind Press
QNH
hPa
Press
MSL
hPa
Rain
since 9 am
mm
Dir
 
Spd
km/h
Gust
km/h
Spd
kts
Gust
kts
29/05:00am 15.4 6.5 10.6 73 2.5 SW 48 63 26 34 1012.9 1012.8 13.6
29/04:30am 15.4 5.7 10.6 73 2.5 SW 52 65 28 35 1013.1 1012.9 13.6
29/04:00am 15.6 6.0 10.8 73 2.6 SW 52 67 28 36 1012.9 1012.8 13.6
29/03:57am 15.4 6.6 10.8 74 2.4 SW 48 67 26 36 1013.1 1012.9 13.6
29/03:30am 15.5 6.9 11.5 77 2.2 SW 48 65 26 35 1013.2 1013.0 13.6
29/03:00am 15.4 6.3 11.2 76 2.3 SW 50 59 27 32 1013.3 1013.1 13.6
29/02:30am 15.6 7.4 11.6 77 2.2 SW 46 57 25 31 1013.8 1013.6 13.6
29/02:00am 15.7 8.6 12.1 79 2.0 SW 41 54 22 29 1014.4 1014.2 13.6
29/01:30am 15.9 9.0 12.8 82 1.7 SW 41 54 22 29 1014.8 1014.6 13.6
29/01:25am 15.6 9.8 12.7 83 1.6 SW 35 54 19 29 1014.9 1014.7 13.6
29/01:00am 15.8 8.5 12.9 83 1.6 SW 43 56 23 30 1015.2 1015.0 13.6
29/12:50am 15.8 9.4 13.3 85 1.4 SW 39 54 21 29 1015.3 1015.1 13.6
29/12:30am 15.0 10.4 13.4 90 0.9 SSW 30 39 16 21 1015.9 1015.7 13.6
29/12:00am 15.0 8.9 13.0 88 1.1 SSW 37 52 20 28 1016.0 1015.8 12.8
 
Date/Time
EDT
Temp
°C
App
Temp
°C
Dew
Point
Rel
Hum
%
Delta-T
°C
Wind Press
QNH
hPa
Press
MSL
hPa
Rain
since 9 am
mm
Dir
 
Spd
km/h
Gust
km/h
Spd
kts
Gust
kts
28/11:57pm 15.7 9.7 13.2 85 1.4 SSW 37 52 20 28 1016.1 1015.9 12.4
28/11:30pm 15.9 8.5 12.6 81 1.8 SW 43 50 23 27 1015.6 1015.4 12.2
28/11:00pm 15.9 9.9 13.2 84 1.5 SW 37 44 20 24 1016.0 1015.8 12.2
28/10:30pm 16.0 9.3 13.5 85 1.4 SW 41 52 22 28 1016.2 1016.0 12.2
28/10:28pm 15.9 9.3 13.6 86 1.3 SW 41 50 22 27 1016.2 1016.0 12.2
28/10:00pm 16.2 10.5 12.9 81 1.8 SSW 35 44 19 24 1016.4 1016.2 12.2
28/09:30pm 15.3 9.5 15.0 98 0.2 SW 39 52 21 28 1016.6 1016.4 12.0
28/09:11pm 16.9 10.9 14.5 86 1.4 SSW 39 57 21 31 1016.4 1016.2 6.4
28/09:00pm 17.3 11.0 14.6 84 1.6 SSW 41 52 22 28 1016.0 1015.8 6.4
28/08:30pm 17.6 10.3 12.7 73 2.7 S 43 54 23 29 1015.9 1015.7 6.4
28/08:00pm 17.6 10.7 14.1 80 2.0 S 43 54 23 29 1015.8 1015.6 6.4
28/07:56pm 17.6 10.9 14.7 83 1.7 S 43 54 23 29 1015.7 1015.5 6.4
28/07:30pm 16.8 10.3 15.2 90 0.9 SSE 43 56 23 30 1015.7 1015.5 6.4
28/07:12pm 16.2 7.5 14.7 91 0.9 S 54 72 29 39 1015.5 1015.3 6.4
28/07:00pm 17.4 8.6 13.5 78 2.2 SSW 52 72 28 39 1015.1 1014.9 6.0
28/06:57pm 18.4 11.0 14.1 76 2.5 SSW 46 69 25 37 1015.2 1015.0 6.0
28/06:54pm 18.5 11.5 13.8 74 2.7 S 43 56 23 30 1015.2 1015.0 6.0
28/06:30pm 18.9 13.2 12.9 68 3.4 S 35 43 19 23 1015.2 1015.0 6.0
28/06:00pm 18.8 15.6 15.3 80 2.1 SSW 26 35 14 19 1015.3 1015.1 6.0
28/05:30pm 19.4 16.5 15.1 76 2.5 SSW 24 32 13 17 1015.3 1015.1 6.0
28/05:00pm 19.3 15.6 12.8 66 3.7 S 24 32 13 17 1015.3 1015.1 6.0
28/04:30pm 19.1 15.6 14.6 75 2.6 S 26 35 14 19 1015.5 1015.3 6.0
28/04:00pm 18.7 15.0 15.0 79 2.2 S 28 37 15 20 1015.7 1015.5 6.0
28/03:30pm 18.5 15.4 15.7 84 1.7 S 26 33 14 18 1015.8 1015.6 6.0
28/03:00pm 17.7 15.3 15.5 87 1.3 SSE 22 28 12 15 1016.0 1015.8 6.0
28/02:30pm 15.7 11.0 14.4 92 0.7 S 32 37 17 20 1016.1 1015.9 6.0
28/02:04pm 15.1 9.7 14.0 93 0.6 SSE 35 72 19 39 1016.3 1016.1 4.0
28/02:01pm 16.1 12.5 13.2 83 1.6 SSE 24 72 13 39 1015.7 1015.5 2.2
28/02:00pm 18.4 16.0 14.5 78 2.3 SE 20 69 11 37 1016.0 1015.8 1.6
28/01:30pm 20.0 17.1 15.2 74 2.8 SSE 24 35 13 19 1016.1 1015.9 1.2
28/01:00pm 19.6 14.7 14.4 72 3.0 SSE 33 43 18 23 1016.1 1015.9 1.2
28/12:30pm 20.2 15.7 15.0 72 3.1 S 32 41 17 22 1015.9 1015.7 1.2
28/12:00pm 18.5 13.0 14.6 78 2.3 S 37 46 20 25 1016.0 1015.8 1.2
28/11:35am 17.7 13.5 15.7 88 1.2 SSE 32 50 17 27 1015.9 1015.7 1.2
28/11:34am 17.8 14.5 16.0 89 1.1 SSE 28 48 15 26 1016.0 1015.8 1.2
28/11:30am 17.7 15.0 15.7 88 1.2 SSE 24 32 13 17 1016.3 1016.1 1.2
28/11:00am 16.3 12.3 15.2 93 0.6 SSE 30 43 16 23 1016.7 1016.5 0.8
28/10:41am 18.5 13.5 15.0 80 2.0 S 35 48 19 26 1016.3 1016.1 0.0
28/10:30am 18.7 14.6 14.8 78 2.3 SSW 30 39 16 21 1016.3 1016.1 0.0
28/10:00am 18.8 13.9 14.3 75 2.6 SSW 33 41 18 22 1016.1 1015.9 0.0
28/09:30am 18.2 12.7 14.7 80 2.0 SSW 37 46 20 25 1016.0 1015.8 0.0
28/09:00am 18.2 12.8 15.1 82 1.8 SSW 37 46 20 25 1015.7 1015.5 1.2
28/08:30am 17.6 10.7 13.9 79 2.1 SSW 43 52 23 28 1015.4 1015.2 1.2
28/08:00am 17.8 11.1 13.5 76 2.4 SSW 41 50 22 27 1015.2 1015.0 1.2
28/07:30am 17.3 11.3 13.2 77 2.3 SW 37 44 20 24 1014.9 1014.7 1.2
28/07:00am 17.1 11.5 13.2 78 2.2 SW 35 43 19 23 1014.5 1014.3 1.2
28/06:30am 17.3 11.0 13.6 79 2.1 SW 39 46 21 25 1014.2 1014.0 1.2
28/06:00am 17.2 11.0 13.9 81 1.9 SW 39 48 21 26 1014.1 1013.9 1.0
28/05:30am 17.3 12.8 13.8 80 2.0 SW 30 39 16 21 1014.4 1014.2 1.0
28/05:00am 17.5 12.7 14.0 80 2.0 SW 32 39 17 21 1014.3 1014.1 1.0
28/04:30am 17.5 13.1 14.0 80 2.0 SW 30 35 16 19 1014.2 1014.0 1.0
28/04:00am 17.4 13.0 14.1 81 1.9 SW 30 35 16 19 1014.2 1014.0 1.0
28/03:30am 17.6 13.0 14.5 82 1.8 SSW 32 39 17 21 1014.3 1014.1 1.0
28/03:00am 17.4 13.1 14.5 83 1.7 SW 30 37 16 20 1014.4 1014.2 1.0
28/02:30am 17.4 12.8 14.5 83 1.7 SW 32 35 17 19 1014.7 1014.5 0.8
28/02:00am 17.3 13.0 14.4 83 1.7 SW 30 35 16 19 1014.9 1014.7 0.8
28/01:30am 17.4 13.6 14.7 84 1.6 SW 28 35 15 19 1015.2 1015.0 0.8
28/01:00am 17.5 15.0 15.1 86 1.4 SW 22 28 12 15 1015.5 1015.3 0.8
28/12:30am 17.0 15.2 14.5 85 1.4 WSW 17 22 9 12 1015.7 1015.5 0.8
28/12:00am 16.9 15.2 14.7 87 1.3 W 17 20 9 11 1015.8 1015.6 0.8
 
Date/Time
EDT
Temp
°C
App
Temp
°C
Dew
Point
Rel
Hum
%
Delta-T
°C
Wind Press
QNH
hPa
Press
MSL
hPa
Rain
since 9 am
mm
Dir
 
Spd
km/h
Gust
km/h
Spd
kts
Gust
kts
27/11:30pm 16.6 15.1 14.2 86 1.4 W 15 20 8 11 1015.9 1015.7 0.8
27/11:00pm 16.8 15.1 14.6 87 1.3 W 17 20 9 11 1016.1 1015.9 0.8
27/10:30pm 17.3 17.1 14.8 85 1.4 WSW 9 20 5 11 1015.9 1015.7 0.8
27/10:00pm 16.6 16.9 14.4 87 1.3 S 6 9 3 5 1016.0 1015.8 0.8
27/09:30pm 16.9 15.0 15.1 89 1.0 S 19 24 10 13 1016.0 1015.8 0.4
27/09:00pm 17.2 15.1 15.2 88 1.2 S 20 24 11 13 1015.8 1015.6 0.4
27/08:30pm 17.7 15.6 15.3 86 1.4 SSE 20 28 11 15 1015.5 1015.3 0.4
27/08:00pm 17.8 14.9 15.1 84 1.6 S 24 30 13 16 1015.3 1015.1 0.4
27/07:30pm 17.9 14.3 15.2 84 1.6 S 28 33 15 18 1014.9 1014.7 0.4
27/07:00pm 18.6 16.0 15.8 84 1.7 SSW 24 32 13 17 1014.8 1014.6 0.4
27/06:30pm 19.5 19.1 14.1 71 3.1 S 9 19 5 10 1014.6 1014.4 0.4
27/06:00pm 19.1 18.9 13.5 70 3.2 SE 7 11 4 6 1014.4 1014.2 0.4
27/05:30pm 19.2 18.6 13.6 70 3.2 ESE 9 15 5 8 1014.4 1014.2 0.4
27/05:00pm 19.1 16.4 12.8 67 3.5 E 19 24 10 13 1014.6 1014.4 0.4
27/04:30pm 19.1 17.4 13.7 71 3.1 ESE 15 19 8 10 1014.8 1014.6 0.4
27/04:00pm 19.1 17.6 14.1 73 2.9 E 15 19 8 10 1015.0 1014.8 0.4
27/03:30pm 18.1 17.5 13.6 75 2.6 E 9 15 5 8 1015.3 1015.1 0.4
27/03:00pm 18.5 17.7 14.0 75 2.6 ESE 11 17 6 9 1015.2 1015.0 0.2
27/02:30pm 18.9 16.9 14.0 73 2.8 ESE 17 20 9 11 1015.4 1015.2 0.2
27/02:00pm 19.3 18.8 14.8 75 2.6 SSE 11 17 6 9 1015.6 1015.4 0.2
27/01:30pm 18.7 17.2 14.2 75 2.6 SSE 15 22 8 12 1015.6 1015.4 0.2
27/01:00pm 19.7 17.9 15.6 77 2.4 SSW 19 24 10 13 1015.6 1015.4 0.2
27/12:30pm 19.4 18.1 15.9 80 2.1 S 17 22 9 12 1015.9 1015.7 0.2
27/12:00pm 17.6 16.1 15.2 86 1.4 SW 17 24 9 13 1016.2 1016.0 0.2
27/11:30am 17.0 14.8 14.3 84 1.5 SW 19 24 10 13 1016.4 1016.2 0.2
27/11:00am 17.4 14.9 14.1 81 1.9 SW 20 24 11 13 1016.2 1016.0 0.0
27/10:30am 17.8 15.6 14.5 81 1.9 SW 19 26 10 14 1016.1 1015.9 0.0
27/10:00am 17.8 15.6 14.9 83 1.7 SW 20 28 11 15 1016.1 1015.9 0.0
27/09:30am 17.1 15.0 14.6 85 1.4 SW 19 22 10 12 1016.1 1015.9 0.0
27/09:00am 16.3 14.0 14.1 87 1.3 SW 19 24 10 13 1016.4 1016.2 2.8
27/08:30am 15.9 14.2 14.8 93 0.6 SW 17 20 9 11 1016.0 1015.8 2.8
27/08:00am 15.6 13.5 14.8 95 0.5 SSW 19 24 10 13 1015.9 1015.7 2.4
27/07:30am 15.3 13.2 14.7 96 0.3 S 19 24 10 13 1015.5 1015.3 2.4
27/07:00am 15.4 12.6 14.3 93 0.6 S 22 28 12 15 1015.5 1015.3 2.2
27/06:30am 15.5 12.2 13.9 90 0.9 SW 24 30 13 16 1015.3 1015.1 1.8
27/06:00am 15.5 12.6 14.0 91 0.8 SW 22 28 12 15 1015.2 1015.0 1.8
27/05:30am 15.7 12.8 13.9 89 1.0 SSW 22 28 12 15 1015.1 1014.9 1.8
27/05:00am 15.8 12.4 13.6 87 1.2 SW 24 32 13 17 1015.1 1014.9 1.8
27/04:30am 15.8 12.0 13.6 87 1.2 SW 26 32 14 17 1015.0 1014.8 1.8
27/04:00am 15.7 12.4 13.9 89 1.0 SW 24 32 13 17 1015.1 1014.9 1.8
27/03:30am 15.7 12.9 14.4 92 0.7 SW 22 28 12 15 1015.4 1015.2 1.8
27/03:00am 15.3 13.0 14.2 93 0.6 SW 19 24 10 13 1015.6 1015.4 1.8
27/02:30am 15.3 12.9 14.5 95 0.5 SW 20 26 11 14 1015.8 1015.6 1.8
27/02:00am 15.2 13.0 14.4 95 0.5 SW 19 26 10 14 1016.1 1015.9 1.6
27/01:30am 15.6 11.1 14.8 95 0.5 SW 32 39 17 21 1016.3 1016.1 0.0
27/01:00am 16.2 13.7 15.1 93 0.6 SW 22 28 12 15 1016.5 1016.3 0.0
27/12:30am 16.5 13.8 14.7 89 1.0 SW 22 28 12 15 1016.6 1016.4 0.0
27/12:00am 16.4 14.1 14.6 89 1.0 SW 20 26 11 14 1017.0 1016.8 0.0
 
Date/Time
EDT
Temp
°C
App
Temp
°C
Dew
Point
Rel
Hum
%
Delta-T
°C
Wind Press
QNH
hPa
Press
MSL
hPa
Rain
since 9 am
mm
Dir
 
Spd
km/h
Gust
km/h
Spd
kts
Gust
kts
26/11:30pm 16.2 13.8 14.4 89 1.0 S 20 26 11 14 1017.2 1017.0 0.0
26/11:00pm 16.0 14.6 14.5 91 0.9 S 15 20 8 11 1017.5 1017.3 0.0
26/10:30pm 16.4 15.6 14.1 86 1.3 SSE 11 13 6 7 1017.6 1017.4 0.0
26/10:00pm 17.0 14.8 13.3 79 2.1 ESE 17 24 9 13 1017.6 1017.4 0.0
26/09:30pm 16.9 14.2 13.0 78 2.2 SSE 19 26 10 14 1017.4 1017.2 0.0
26/09:00pm 17.2 13.9 12.9 76 2.4 SE 22 28 12 15 1017.2 1017.0 0.0
26/08:30pm 17.5 13.6 13.4 77 2.3 SE 26 33 14 18 1016.7 1016.5 0.0
26/08:00pm 17.7 14.5 13.0 74 2.6 E 22 30 12 16 1016.5 1016.3 0.0
26/07:30pm 17.2 12.5 13.3 78 2.2 E 30 35 16 19 1016.2 1016.0 0.0
26/07:00pm 18.1 14.2 13.4 74 2.7 ESE 26 41 14 22 1015.8 1015.6 0.0
26/06:30pm 18.7 15.4 12.7 68 3.4 SE 22 28 12 15 1015.6 1015.4 0.0
26/06:00pm 18.6 15.2 12.6 68 3.4 SSE 22 28 12 15 1015.4 1015.2 0.0
26/05:30pm 18.5 14.3 12.5 68 3.4 SSE 26 32 14 17 1015.2 1015.0 0.0
26/05:00pm 18.5 14.7 12.3 67 3.4 SSE 24 32 13 17 1015.3 1015.1 0.0
26/04:30pm 18.8 15.4 12.5 67 3.5 SSE 22 30 12 16 1015.5 1015.3 0.0
26/04:00pm 19.1 15.6 12.1 64 3.9 SSE 22 28 12 15 1015.5 1015.3 0.0
26/03:30pm 19.4 16.0 12.4 64 3.9 SSE 22 28 12 15 1015.4 1015.2 0.0
26/03:00pm 19.6 15.7 12.1 62 4.2 SSE 24 30 13 16 1015.4 1015.2 0.0
26/02:30pm 19.4 15.9 12.2 63 4.0 SSE 22 28 12 15 1015.4 1015.2 0.0
26/02:00pm 19.2 15.3 10.7 58 4.6 SSE 22 30 12 16 1015.5 1015.3 0.0
26/01:30pm 19.8 15.7 10.2 54 5.2 S 22 32 12 17 1015.7 1015.5 0.0
26/01:00pm 19.9 15.7 9.8 52 5.4 S 22 30 12 16 1015.9 1015.7 0.0
26/12:30pm 19.4 15.3 10.1 55 5.0 SSW 22 30 12 16 1016.0 1015.8 0.0
26/12:00pm 18.7 14.0 9.2 54 5.0 SSW 24 30 13 16 1016.0 1015.8 0.0
26/11:30am 19.2 14.4 8.8 51 5.4 SSW 24 32 13 17 1015.7 1015.5 0.0
26/11:00am 18.7 14.5 9.8 56 4.7 SSW 22 30 12 16 1015.7 1015.5 0.0
26/10:30am 18.1 13.8 9.5 57 4.5 SSW 22 32 12 17 1015.7 1015.5 0.0
26/10:00am 18.2 13.0 8.7 54 4.9 SSW 26 33 14 18 1015.5 1015.3 0.0
26/09:30am 17.7 13.0 9.3 58 4.4 SSW 24 30 13 16 1015.6 1015.4 0.0
26/09:00am 17.5 13.2 9.2 58 4.3 SSW 22 32 12 17 1015.5 1015.3 0.0
26/08:30am 17.5 12.3 8.9 57 4.5 SSW 26 33 14 18 1015.1 1014.9 0.0
26/08:00am 17.4 12.2 8.8 57 4.4 SSW 26 35 14 19 1014.7 1014.5 0.0
26/07:30am 17.4 12.1 8.3 55 4.7 S 26 32 14 17 1014.4 1014.2 0.0
26/07:00am 17.4 11.4 8.8 57 4.4 S 30 37 16 20 1013.8 1013.6 0.0
26/06:30am 17.3 11.4 9.2 59 4.2 S 30 35 16 19 1013.6 1013.4 0.0
26/06:00am 17.3 12.9 10.4 64 3.7 S 24 32 13 17 1013.3 1013.1 0.0
26/05:30am 17.2 12.7 9.9 62 3.9 SSW 24 32 13 17 1012.7 1012.6 0.0

Other Formats:

Comma delimited format used in spreadsheet applications
http://www.bom.gov.au/fwo/IDN60801/IDN60801.94939.axf

JavaScript Object Notation format (JSON) in row-major order
http://www.bom.gov.au/fwo/IDN60801/IDN60801.94939.json